sensor_id;sensor_type;location;lat;lon;timestamp;pressure;altitude;pressure_sealevel;temperature;humidity
43281;BME280;62175;49.416;8.690;2023-05-03T22:02:59;101053.71;;;17.75;38.56
43281;BME280;62175;49.416;8.690;2023-05-03T22:05:26;101047.55;;;18.08;39.72
43281;BME280;62175;49.416;8.690;2023-05-03T22:07:54;101042.39;;;18.02;40.30
43281;BME280;62175;49.416;8.690;2023-05-03T22:10:22;101040.30;;;17.77;36.62
43281;BME280;62175;49.416;8.690;2023-05-03T22:12:49;101044.14;;;18.18;38.61
43281;BME280;62175;49.416;8.690;2023-05-03T22:15:17;101039.36;;;17.90;35.28
43281;BME280;62175;49.416;8.690;2023-05-03T22:17:45;101040.71;;;18.17;37.16
43281;BME280;62175;49.416;8.690;2023-05-03T22:20:12;101043.18;;;18.08;38.09
43281;BME280;62175;49.416;8.690;2023-05-03T22:22:39;101040.62;;;18.06;37.65
43281;BME280;62175;49.416;8.690;2023-05-03T22:25:06;101042.14;;;18.06;34.79
43281;BME280;62175;49.416;8.690;2023-05-03T22:27:35;101039.21;;;17.81;37.14
43281;BME280;62175;49.416;8.690;2023-05-03T22:30:02;101041.79;;;18.30;34.97
43281;BME280;62175;49.416;8.690;2023-05-03T22:32:30;101039.54;;;18.08;36.13
43281;BME280;62175;49.416;8.690;2023-05-03T22:34:56;101039.18;;;18.27;39.35
43281;BME280;62175;49.416;8.690;2023-05-03T22:37:24;101040.18;;;17.77;35.78
43281;BME280;62175;49.416;8.690;2023-05-03T22:39:51;101041.52;;;17.85;37.32
43281;BME280;62175;49.416;8.690;2023-05-03T22:42:18;101042.85;;;17.98;36.54
43281;BME280;62175;49.416;8.690;2023-05-03T22:44:45;101042.27;;;18.31;34.31
43281;BME280;62175;49.416;8.690;2023-05-03T22:47:12;101040.23;;;18.03;36.13
43281;BME280;62175;49.416;8.690;2023-05-03T22:49:39;101040.91;;;18.19;35.14
43281;BME280;62175;49.416;8.690;2023-05-03T22:52:06;101036.60;;;18.03;40.45
43281;BME280;62175;49.416;8.690;2023-05-03T22:54:33;101034.87;;;17.98;39.35
43281;BME280;62175;49.416;8.690;2023-05-03T22:57:01;101035.00;;;17.93;38.04
43281;BME280;62175;49.416;8.690;2023-05-03T22:59:28;101033.16;;;18.13;39.42
43281;BME280;62175;49.416;8.690;2023-05-03T23:01:55;101031.23;;;17.84;35.97
43281;BME280;62175;49.416;8.690;2023-05-03T23:04:22;101033.00;;;17.60;40.13
43281;BME280;62175;49.416;8.690;2023-05-03T23:06:49;101029.96;;;17.95;39.19
43281;BME280;62175;49.416;8.690;2023-05-03T23:09:15;101032.54;;;17.97;39.54
43281;BME280;62175;49.416;8.690;2023-05-03T23:11:43;101029.65;;;17.90;40.39
43281;BME280;62175;49.416;8.690;2023-05-03T23:14:10;101025.29;;;18.19;35.77
43281;BME280;62175;49.416;8.690;2023-05-03T23:16:37;101020.57;;;17.85;38.73
43281;BME280;62175;49.416;8.690;2023-05-03T23:19:04;101018.90;;;18.11;34.76
43281;BME280;62175;49.416;8.690;2023-05-03T23:21:31;101016.35;;;17.91;37.68
43281;BME280;62175;49.416;8.690;2023-05-03T23:23:58;101013.81;;;17.88;37.23
43281;BME280;62175;49.416;8.690;2023-05-03T23:26:25;101017.69;;;17.99;42.96
43281;BME280;62175;49.416;8.690;2023-05-03T23:28:52;101016.50;;;17.74;38.16
43281;BME280;62175;49.416;8.690;2023-05-03T23:31:19;101014.10;;;18.16;40.23
43281;BME280;62175;49.416;8.690;2023-05-03T23:33:46;101010.08;;;18.15;36.20
43281;BME280;62175;49.416;8.690;2023-05-03T23:36:13;101014.22;;;17.92;38.78
43281;BME280;62175;49.416;8.690;2023-05-03T23:38:40;101008.68;;;17.91;35.14
43281;BME280;62175;49.416;8.690;2023-05-03T23:41:08;101007.48;;;17.84;37.36
43281;BME280;62175;49.416;8.690;2023-05-03T23:43:35;101012.05;;;17.99;37.18
43281;BME280;62175;49.416;8.690;2023-05-03T23:46:02;101006.59;;;17.77;39.56
43281;BME280;62175;49.416;8.690;2023-05-03T23:48:29;101012.78;;;17.99;38.73
43281;BME280;62175;49.416;8.690;2023-05-03T23:50:56;101014.92;;;17.72;39.74
43281;BME280;62175;49.416;8.690;2023-05-03T23:53:23;101013.11;;;17.77;39.62
43281;BME280;62175;49.416;8.690;2023-05-03T23:55:50;101017.28;;;17.89;38.82
43281;BME280;62175;49.416;8.690;2023-05-03T23:58:17;101011.54;;;17.70;40.09
